20VA weather

Woodford Airpark
Bowling Green, Virginia, United States

Public forecast

Using degrees Fahrenheit for public forecast. Weather courtesy of forecast.io.

METAR (pilot weather report)

Closest report is Shannon Airport, 11.2 nm (20.8 km) N. Retrieved 2019/07/22 09:35 UTC (7 minutes ago):

KEZF 220935Z AUTO 15003KT 10SM SCT080 23/22 A2987 RMK AO2 T02300222

TAF (pilot weather forecast)

Forecast is more than 12 hours old.

Closest forecast is Quantico MCAF /Turner field, 26.6 nm (49.3 km) NNE. Retrieved 2016/02/08 15:59 UTC (3 years ago):

TAF COR KNYG 081500Z 0815/0915 VRB06KT 9999 FEW080 SCT180 620209 621105 540009 540909 QNH2970INS BECMG 0822/0823 VRB06KT 9000 -RA FEW030 SCT080 BKN120 620209 621105 540009 540909 QNH2952INS BECMG 0905/0907 VRB06KT 8000 RASN 600000 500000 BKN020 OVC030 500000 QNH2947INS T07/0820Z T00/0911Z COR 1553